sensor_id;sensor_type;location;lat;lon;timestamp;pressure;altitude;pressure_sealevel;temperature;humidity
11525;BME280;5819;49.648;8.330;2023-04-04T00:00:37;101558.06;;;1.58;75.32
11525;BME280;5819;49.648;8.330;2023-04-04T00:03:07;101560.81;;;1.70;75.09
11525;BME280;5819;49.648;8.330;2023-04-04T00:05:35;101554.63;;;1.55;75.59
11525;BME280;5819;49.648;8.330;2023-04-04T00:08:03;101548.66;;;1.56;75.43
11525;BME280;5819;49.648;8.330;2023-04-04T00:10:31;101553.91;;;1.66;75.52
11525;BME280;5819;49.648;8.330;2023-04-04T00:12:59;101546.16;;;1.60;75.70
11525;BME280;5819;49.648;8.330;2023-04-04T00:15:27;101547.13;;;1.70;75.19
11525;BME280;5819;49.648;8.330;2023-04-04T00:17:55;101542.72;;;1.61;75.49
11525;BME280;5819;49.648;8.330;2023-04-04T00:20:25;101547.66;;;1.46;76.40
11525;BME280;5819;49.648;8.330;2023-04-04T00:22:53;101550.31;;;1.54;76.05
11525;BME280;5819;49.648;8.330;2023-04-04T00:25:20;101544.25;;;1.47;76.07
11525;BME280;5819;49.648;8.330;2023-04-04T00:27:48;101545.03;;;1.41;76.47
11525;BME280;5819;49.648;8.330;2023-04-04T00:30:17;101545.03;;;1.41;76.35
11525;BME280;5819;49.648;8.330;2023-04-04T00:32:45;101536.41;;;1.36;76.42
11525;BME280;5819;49.648;8.330;2023-04-04T00:35:13;101531.31;;;1.38;76.96
11525;BME280;5819;49.648;8.330;2023-04-04T00:37:42;101530.59;;;1.50;77.18
11525;BME280;5819;49.648;8.330;2023-04-04T00:40:11;101533.69;;;1.26;76.70
11525;BME280;5819;49.648;8.330;2023-04-04T00:42:39;101531.16;;;1.27;77.82
11525;BME280;5819;49.648;8.330;2023-04-04T00:45:07;101530.16;;;1.18;77.40
11525;BME280;5819;49.648;8.330;2023-04-04T00:47:36;101526.56;;;1.04;78.05
11525;BME280;5819;49.648;8.330;2023-04-04T00:50:06;101533.13;;;0.89;78.19
11525;BME280;5819;49.648;8.330;2023-04-04T00:52:34;101521.31;;;0.98;78.29
11525;BME280;5819;49.648;8.330;2023-04-04T00:55:05;101518.00;;;1.05;78.85
11525;BME280;5819;49.648;8.330;2023-04-04T00:57:33;101523.19;;;1.08;78.62
11525;BME280;5819;49.648;8.330;2023-04-04T01:00:02;101533.19;;;0.91;79.32
11525;BME280;5819;49.648;8.330;2023-04-04T01:02:31;101523.72;;;0.88;78.81
11525;BME280;5819;49.648;8.330;2023-04-04T01:05:01;101526.31;;;0.90;79.38
11525;BME280;5819;49.648;8.330;2023-04-04T01:07:30;101525.50;;;0.92;79.83
11525;BME280;5819;49.648;8.330;2023-04-04T01:09:59;101524.66;;;0.92;79.17
11525;BME280;5819;49.648;8.330;2023-04-04T01:12:31;101518.97;;;1.13;79.43
11525;BME280;5819;49.648;8.330;2023-04-04T01:14:59;101522.19;;;0.98;78.42
11525;BME280;5819;49.648;8.330;2023-04-04T01:17:27;101518.91;;;1.07;78.46
11525;BME280;5819;49.648;8.330;2023-04-04T01:19:59;101520.44;;;0.97;78.73
11525;BME280;5819;49.648;8.330;2023-04-04T01:22:38;101522.81;;;0.85;78.82
11525;BME280;5819;49.648;8.330;2023-04-04T01:25:07;101514.38;;;0.90;78.75
11525;BME280;5819;49.648;8.330;2023-04-04T01:27:40;101511.00;;;0.91;80.13
11525;BME280;5819;49.648;8.330;2023-04-04T01:30:13;101505.94;;;0.96;79.62
11525;BME280;5819;49.648;8.330;2023-04-04T01:32:46;101508.34;;;0.88;79.58
11525;BME280;5819;49.648;8.330;2023-04-04T01:35:21;101505.19;;;1.05;78.01
11525;BME280;5819;49.648;8.330;2023-04-04T01:37:59;101500.78;;;0.94;78.70
11525;BME280;5819;49.648;8.330;2023-04-04T01:40:32;101504.06;;;0.86;78.48
11525;BME280;5819;49.648;8.330;2023-04-04T01:43:07;101512.47;;;0.77;79.88
11525;BME280;5819;49.648;8.330;2023-04-04T01:45:37;101502.88;;;0.66;80.10
11525;BME280;5819;49.648;8.330;2023-04-04T01:48:09;101502.88;;;0.64;79.83
11525;BME280;5819;49.648;8.330;2023-04-04T01:50:39;101494.88;;;0.99;79.55
11525;BME280;5819;49.648;8.330;2023-04-04T01:53:08;101496.28;;;0.78;79.37
11525;BME280;5819;49.648;8.330;2023-04-04T01:55:36;101493.13;;;0.98;80.19
11525;BME280;5819;49.648;8.330;2023-04-04T01:58:04;101498.94;;;0.86;79.09
11525;BME280;5819;49.648;8.330;2023-04-04T02:00:33;101495.41;;;0.78;79.86
11525;BME280;5819;49.648;8.330;2023-04-04T02:03:02;101500.09;;;0.51;79.76
11525;BME280;5819;49.648;8.330;2023-04-04T02:05:30;101497.84;;;0.70;80.39
11525;BME280;5819;49.648;8.330;2023-04-04T02:07:57;101493.59;;;0.72;79.21
11525;BME280;5819;49.648;8.330;2023-04-04T02:10:33;101494.56;;;0.80;79.77
11525;BME280;5819;49.648;8.330;2023-04-04T02:13:01;101500.31;;;0.66;80.54
11525;BME280;5819;49.648;8.330;2023-04-04T02:15:29;101493.34;;;0.57;79.62
11525;BME280;5819;49.648;8.330;2023-04-04T02:17:58;101501.94;;;0.59;80.91
11525;BME280;5819;49.648;8.330;2023-04-04T02:20:27;101499.53;;;0.70;79.82
11525;BME280;5819;49.648;8.330;2023-04-04T02:22:56;101507.09;;;0.62;80.13
11525;BME280;5819;49.648;8.330;2023-04-04T02:25:24;101512.75;;;0.44;80.22
11525;BME280;5819;49.648;8.330;2023-04-04T02:27:52;101505.91;;;0.42;80.54
11525;BME280;5819;49.648;8.330;2023-04-04T02:30:20;101507.88;;;0.58;81.07
11525;BME280;5819;49.648;8.330;2023-04-04T02:32:48;101509.25;;;0.38;81.27
11525;BME280;5819;49.648;8.330;2023-04-04T02:35:20;101496.78;;;0.56;81.03
11525;BME280;5819;49.648;8.330;2023-04-04T02:37:49;101498.47;;;0.57;80.93
11525;BME280;5819;49.648;8.330;2023-04-04T02:40:23;101500.75;;;0.40;81.43
11525;BME280;5819;49.648;8.330;2023-04-04T02:42:51;101509.38;;;0.45;81.50
11525;BME280;5819;49.648;8.330;2023-04-04T02:45:20;101502.47;;;0.41;80.75
11525;BME280;5819;49.648;8.330;2023-04-04T02:48:08;101505.06;;;0.44;81.52
11525;BME280;5819;49.648;8.330;2023-04-04T02:50:45;101499.75;;;0.32;80.73
11525;BME280;5819;49.648;8.330;2023-04-04T02:53:14;101499.91;;;0.40;81.30
11525;BME280;5819;49.648;8.330;2023-04-04T02:55:44;101509.94;;;0.28;81.31
11525;BME280;5819;49.648;8.330;2023-04-04T02:58:14;101497.19;;;0.32;81.18
11525;BME280;5819;49.648;8.330;2023-04-04T03:00:42;101500.03;;;0.49;79.88
11525;BME280;5819;49.648;8.330;2023-04-04T03:03:10;101504.94;;;0.37;81.37
11525;BME280;5819;49.648;8.330;2023-04-04T03:05:43;101500.47;;;0.24;81.49
11525;BME280;5819;49.648;8.330;2023-04-04T03:08:12;101494.50;;;0.25;81.91
11525;BME280;5819;49.648;8.330;2023-04-04T03:10:40;101498.69;;;0.20;81.87
11525;BME280;5819;49.648;8.330;2023-04-04T03:13:09;101498.88;;;0.30;81.48
11525;BME280;5819;49.648;8.330;2023-04-04T03:15:37;101500.47;;;0.24;81.27
11525;BME280;5819;49.648;8.330;2023-04-04T03:18:07;101494.22;;;0.10;82.36
11525;BME280;5819;49.648;8.330;2023-04-04T03:20:35;101502.00;;;0.14;82.75
11525;BME280;5819;49.648;8.330;2023-04-04T03:23:04;101498.06;;;0.33;81.05
11525;BME280;5819;49.648;8.330;2023-04-04T03:25:32;101503.91;;;0.26;81.20
11525;BME280;5819;49.648;8.330;2023-04-04T03:28:07;101499.53;;;0.20;81.25
11525;BME280;5819;49.648;8.330;2023-04-04T03:30:35;101498.84;;;0.29;81.08
11525;BME280;5819;49.648;8.330;2023-04-04T03:33:04;101498.88;;;0.30;81.42
11525;BME280;5819;49.648;8.330;2023-04-04T03:35:36;101495.28;;;0.19;81.47
11525;BME280;5819;49.648;8.330;2023-04-04T03:38:06;101488.44;;;0.18;82.11
11525;BME280;5819;49.648;8.330;2023-04-04T03:40:33;101488.59;;;0.29;82.02
11525;BME280;5819;49.648;8.330;2023-04-04T03:43:09;101487.78;;;0.30;81.10
11525;BME280;5819;49.648;8.330;2023-04-04T03:45:37;101488.31;;;0.12;81.82
11525;BME280;5819;49.648;8.330;2023-04-04T03:48:08;101495.88;;;0.06;82.04
11525;BME280;5819;49.648;8.330;2023-04-04T03:50:37;101492.31;;;-0.02;82.81
11525;BME280;5819;49.648;8.330;2023-04-04T03:53:07;101496.47;;;-0.07;82.39
11525;BME280;5819;49.648;8.330;2023-04-04T03:55:39;101495.91;;;0.09;81.57
11525;BME280;5819;49.648;8.330;2023-04-04T03:58:07;101492.44;;;0.06;82.40
11525;BME280;5819;49.648;8.330;2023-04-04T04:00:35;101494.88;;;-0.02;81.97
11525;BME280;5819;49.648;8.330;2023-04-04T04:03:03;101489.81;;;0.01;81.77
11525;BME280;5819;49.648;8.330;2023-04-04T04:05:31;101493.09;;;-0.06;82.46
11525;BME280;5819;49.648;8.330;2023-04-04T04:07:59;101498.25;;;-0.03;83.33
11525;BME280;5819;49.648;8.330;2023-04-04T04:10:28;101494.53;;;-0.20;83.05
11525;BME280;5819;49.648;8.330;2023-04-04T04:12:56;101499.66;;;-0.20;83.97
11525;BME280;5819;49.648;8.330;2023-04-04T04:15:24;101491.34;;;-0.09;82.67
11525;BME280;5819;49.648;8.330;2023-04-04T04:17:55;101502.34;;;-0.13;83.03
11525;BME280;5819;49.648;8.330;2023-04-04T04:20:26;101492.13;;;-0.13;83.04
11525;BME280;5819;49.648;8.330;2023-04-04T04:22:53;101493.81;;;-0.13;83.08
11525;BME280;5819;49.648;8.330;2023-04-04T04:25:22;101485.13;;;-0.21;82.92
11525;BME280;5819;49.648;8.330;2023-04-04T04:28:05;101496.22;;;-0.19;84.02
11525;BME280;5819;49.648;8.330;2023-04-04T04:30:34;101492.94;;;-0.14;83.35
11525;BME280;5819;49.648;8.330;2023-04-04T04:33:03;101492.91;;;-0.15;82.57
11525;BME280;5819;49.648;8.330;2023-04-04T04:35:38;101492.16;;;-0.10;82.14
11525;BME280;5819;49.648;8.330;2023-04-04T04:38:09;101494.91;;;-0.01;82.45
11525;BME280;5819;49.648;8.330;2023-04-04T04:40:38;101491.16;;;-0.18;82.89
11525;BME280;5819;49.648;8.330;2023-04-04T04:43:24;101494.41;;;-0.26;83.00
11525;BME280;5819;49.648;8.330;2023-04-04T04:45:53;101492.72;;;-0.26;83.37
11525;BME280;5819;49.648;8.330;2023-04-04T04:48:41;101494.28;;;-0.31;82.90
11525;BME280;5819;49.648;8.330;2023-04-04T04:51:11;101501.03;;;-0.34;83.38
11525;BME280;5819;49.648;8.330;2023-04-04T04:53:44;101492.66;;;-0.27;83.14
11525;BME280;5819;49.648;8.330;2023-04-04T04:56:13;101497.63;;;-0.35;84.22
11525;BME280;5819;49.648;8.330;2023-04-04T04:58:44;101508.41;;;-0.50;83.55
11525;BME280;5819;49.648;8.330;2023-04-04T05:01:20;101499.22;;;-0.40;84.75
11525;BME280;5819;49.648;8.330;2023-04-04T05:03:48;101505.53;;;-0.24;83.83
11525;BME280;5819;49.648;8.330;2023-04-04T05:06:25;101498.88;;;-0.15;83.06
11525;BME280;5819;49.648;8.330;2023-04-04T05:08:54;101508.28;;;-0.14;82.11
11525;BME280;5819;49.648;8.330;2023-04-04T05:11:29;101506.44;;;-0.21;82.42
11525;BME280;5819;49.648;8.330;2023-04-04T05:13:59;101509.81;;;-0.22;83.20
11525;BME280;5819;49.648;8.330;2023-04-04T05:16:33;101501.91;;;-0.34;83.92
11525;BME280;5819;49.648;8.330;2023-04-04T05:19:02;101505.47;;;-0.26;83.69
11525;BME280;5819;49.648;8.330;2023-04-04T05:21:36;101503.13;;;-0.15;82.57
11525;BME280;5819;49.648;8.330;2023-04-04T05:24:07;101506.41;;;-0.22;83.62
11525;BME280;5819;49.648;8.330;2023-04-04T05:26:37;101514.22;;;-0.15;83.32
11525;BME280;5819;49.648;8.330;2023-04-04T05:29:07;101504.78;;;-0.19;83.48
11525;BME280;5819;49.648;8.330;2023-04-04T05:31:39;101511.72;;;-0.12;82.73
11525;BME280;5819;49.648;8.330;2023-04-04T05:34:15;101499.81;;;-0.11;83.36
11525;BME280;5819;49.648;8.330;2023-04-04T05:36:42;101508.56;;;0.02;83.21
11525;BME280;5819;49.648;8.330;2023-04-04T05:39:11;101509.44;;;0.02;82.07
11525;BME280;5819;49.648;8.330;2023-04-04T05:41:50;101505.91;;;-0.05;82.53
11525;BME280;5819;49.648;8.330;2023-04-04T05:44:21;101512.91;;;0.06;83.02
11525;BME280;5819;49.648;8.330;2023-04-04T05:46:50;101511.63;;;0.29;81.26
11525;BME280;5819;49.648;8.330;2023-04-04T05:49:18;101513.25;;;0.24;81.26
11525;BME280;5819;49.648;8.330;2023-04-04T05:51:54;101513.38;;;0.30;81.81
11525;BME280;5819;49.648;8.330;2023-04-04T05:54:24;101516.66;;;0.24;80.88
11525;BME280;5819;49.648;8.330;2023-04-04T05:56:53;101509.88;;;0.26;80.63
11525;BME280;5819;49.648;8.330;2023-04-04T05:59:39;101514.75;;;0.59;80.17
11525;BME280;5819;49.648;8.330;2023-04-04T06:02:09;101511.47;;;0.69;79.28
11525;BME280;5819;49.648;8.330;2023-04-04T06:04:41;101514.81;;;0.65;79.86
11525;BME280;5819;49.648;8.330;2023-04-04T06:07:15;101514.88;;;0.68;78.83
11525;BME280;5819;49.648;8.330;2023-04-04T06:09:43;101510.75;;;0.78;79.27
11525;BME280;5819;49.648;8.330;2023-04-04T06:12:11;101504.69;;;0.71;79.04
11525;BME280;5819;49.648;8.330;2023-04-04T06:14:41;101508.31;;;0.85;78.43
11525;BME280;5819;49.648;8.330;2023-04-04T06:17:09;101513.38;;;0.81;79.19
11525;BME280;5819;49.648;8.330;2023-04-04T06:19:37;101506.88;;;1.03;78.70
11525;BME280;5819;49.648;8.330;2023-04-04T06:22:05;101509.31;;;0.93;78.65
11525;BME280;5819;49.648;8.330;2023-04-04T06:24:35;101511.06;;;0.98;78.99
11525;BME280;5819;49.648;8.330;2023-04-04T06:27:04;101519.84;;;1.13;78.57
11525;BME280;5819;49.648;8.330;2023-04-04T06:29:33;101522.50;;;1.21;78.25
11525;BME280;5819;49.648;8.330;2023-04-04T06:32:05;101522.47;;;1.18;78.04
11525;BME280;5819;49.648;8.330;2023-04-04T06:34:37;101519.91;;;1.18;79.38
11525;BME280;5819;49.648;8.330;2023-04-04T06:37:06;101524.38;;;1.32;78.03
11525;BME280;5819;49.648;8.330;2023-04-04T06:39:40;101528.00;;;1.47;77.49
11525;BME280;5819;49.648;8.330;2023-04-04T06:42:17;101521.16;;;1.44;78.34
11525;BME280;5819;49.648;8.330;2023-04-04T06:44:48;101519.50;;;1.49;78.15
11525;BME280;5819;49.648;8.330;2023-04-04T06:47:18;101520.66;;;1.72;78.07
11525;BME280;5819;49.648;8.330;2023-04-04T06:49:47;101520.13;;;2.01;76.55
11525;BME280;5819;49.648;8.330;2023-04-04T06:52:16;101522.56;;;1.88;77.09
11525;BME280;5819;49.648;8.330;2023-04-04T06:54:44;101518.47;;;2.06;77.23
11525;BME280;5819;49.648;8.330;2023-04-04T06:57:13;101526.31;;;2.18;76.63
11525;BME280;5819;49.648;8.330;2023-04-04T06:59:41;101525.81;;;2.52;75.94
11525;BME280;5819;49.648;8.330;2023-04-04T07:02:10;101525.75;;;2.49;75.37
11525;BME280;5819;49.648;8.330;2023-04-04T07:04:40;101526.88;;;2.78;73.60
11525;BME280;5819;49.648;8.330;2023-04-04T07:07:08;101518.53;;;3.07;73.66
11525;BME280;5819;49.648;8.330;2023-04-04T07:09:36;101525.59;;;3.43;72.91
11525;BME280;5819;49.648;8.330;2023-04-04T07:12:04;101518.88;;;3.66;70.83
11525;BME280;5819;49.648;8.330;2023-04-04T07:14:32;101512.88;;;3.70;70.68
11525;BME280;5819;49.648;8.330;2023-04-04T07:16:59;101512.06;;;3.80;71.23
11525;BME280;5819;49.648;8.330;2023-04-04T07:19:40;101523.19;;;3.71;68.45
11525;BME280;5819;49.648;8.330;2023-04-04T07:22:08;101514.72;;;4.06;67.31
11525;BME280;5819;49.648;8.330;2023-04-04T07:24:36;101520.81;;;4.29;68.20
11525;BME280;5819;49.648;8.330;2023-04-04T07:27:04;101509.66;;;4.91;65.13
11525;BME280;5819;49.648;8.330;2023-04-04T07:29:32;101504.47;;;5.23;63.94
11525;BME280;5819;49.648;8.330;2023-04-04T07:32:00;101503.59;;;5.27;65.70
11525;BME280;5819;49.648;8.330;2023-04-04T07:34:28;101507.91;;;5.20;65.33
11525;BME280;5819;49.648;8.330;2023-04-04T07:36:57;101500.19;;;4.90;65.55
11525;BME280;5819;49.648;8.330;2023-04-04T07:39:25;101495.88;;;5.10;64.87
11525;BME280;5819;49.648;8.330;2023-04-04T07:41:53;101491.44;;;5.70;63.97
11525;BME280;5819;49.648;8.330;2023-04-04T07:44:20;101488.69;;;6.03;62.89
11525;BME280;5819;49.648;8.330;2023-04-04T07:46:48;101486.91;;;6.14;62.84
11525;BME280;5819;49.648;8.330;2023-04-04T07:49:34;101487.97;;;5.77;63.56
11525;BME280;5819;49.648;8.330;2023-04-04T07:52:03;101486.03;;;6.21;62.39
11525;BME280;5819;49.648;8.330;2023-04-04T07:54:32;101489.34;;;6.40;61.07
11525;BME280;5819;49.648;8.330;2023-04-04T07:56:59;101471.38;;;7.19;57.45
11525;BME280;5819;49.648;8.330;2023-04-04T07:59:31;101457.31;;;8.10;56.12
11525;BME280;5819;49.648;8.330;2023-04-04T08:01:58;101460.28;;;7.81;57.09
11525;BME280;5819;49.648;8.330;2023-04-04T08:04:26;101460.03;;;7.32;55.69
11525;BME280;5819;49.648;8.330;2023-04-04T08:06:54;101471.75;;;6.83;58.85
11525;BME280;5819;49.648;8.330;2023-04-04T08:09:24;101468.47;;;6.63;59.77
11525;BME280;5819;49.648;8.330;2023-04-04T08:11:56;101461.25;;;7.01;58.52
11525;BME280;5819;49.648;8.330;2023-04-04T08:14:24;101458.91;;;7.54;56.96
11525;BME280;5819;49.648;8.330;2023-04-04T08:16:52;101453.50;;;7.73;56.18
11525;BME280;5819;49.648;8.330;2023-04-04T08:19:21;101453.59;;;7.64;54.44
11525;BME280;5819;49.648;8.330;2023-04-04T08:21:49;101459.38;;;7.14;53.30
11525;BME280;5819;49.648;8.330;2023-04-04T08:24:17;101457.63;;;7.16;56.60
11525;BME280;5819;49.648;8.330;2023-04-04T08:26:49;101448.00;;;7.27;57.14
11525;BME280;5819;49.648;8.330;2023-04-04T08:29:30;101454.38;;;6.95;55.08
11525;BME280;5819;49.648;8.330;2023-04-04T08:31:59;101454.22;;;7.11;53.26
11525;BME280;5819;49.648;8.330;2023-04-04T08:34:28;101455.66;;;7.37;53.02
11525;BME280;5819;49.648;8.330;2023-04-04T08:36:55;101448.88;;;7.29;50.92
11525;BME280;5819;49.648;8.330;2023-04-04T08:39:23;101449.72;;;7.28;50.65
11525;BME280;5819;49.648;8.330;2023-04-04T08:42:00;101452.63;;;7.02;52.47
11525;BME280;5819;49.648;8.330;2023-04-04T08:44:28;101443.94;;;7.04;50.52
11525;BME280;5819;49.648;8.330;2023-04-04T08:46:58;101445.31;;;7.36;52.78
11525;BME280;5819;49.648;8.330;2023-04-04T08:49:28;101444.22;;;7.58;50.32
11525;BME280;5819;49.648;8.330;2023-04-04T08:51:58;101431.88;;;7.75;51.69
11525;BME280;5819;49.648;8.330;2023-04-04T08:54:29;101441.88;;;7.37;53.99
11525;BME280;5819;49.648;8.330;2023-04-04T08:57:00;101436.78;;;7.26;52.42
11525;BME280;5819;49.648;8.330;2023-04-04T08:59:28;101438.69;;;7.12;51.04
11525;BME280;5819;49.648;8.330;2023-04-04T09:02:01;101427.00;;;7.51;49.00
11525;BME280;5819;49.648;8.330;2023-04-04T09:04:31;101423.81;;;7.31;49.53
11525;BME280;5819;49.648;8.330;2023-04-04T09:06:59;101424.66;;;7.33;51.45
11525;BME280;5819;49.648;8.330;2023-04-04T09:09:30;101427.81;;;7.56;49.21
11525;BME280;5819;49.648;8.330;2023-04-04T09:12:00;101429.94;;;7.25;52.03
11525;BME280;5819;49.648;8.330;2023-04-04T09:14:29;101429.03;;;7.29;50.57
11525;BME280;5819;49.648;8.330;2023-04-04T09:16:58;101431.84;;;7.06;52.93
11525;BME280;5819;49.648;8.330;2023-04-04T09:19:26;101425.88;;;7.00;51.37
11525;BME280;5819;49.648;8.330;2023-04-04T09:21:56;101419.81;;;7.04;51.32
11525;BME280;5819;49.648;8.330;2023-04-04T09:24:36;101423.84;;;7.29;54.52
11525;BME280;5819;49.648;8.330;2023-04-04T09:27:06;101427.09;;;7.45;53.00
11525;BME280;5819;49.648;8.330;2023-04-04T09:29:33;101424.47;;;7.49;53.72
11525;BME280;5819;49.648;8.330;2023-04-04T09:32:02;101421.59;;;7.69;52.37
11525;BME280;5819;49.648;8.330;2023-04-04T09:34:31;101414.38;;;7.91;53.54
11525;BME280;5819;49.648;8.330;2023-04-04T09:36:59;101408.84;;;8.15;52.53
11525;BME280;5819;49.648;8.330;2023-04-04T09:39:27;101412.88;;;7.78;47.84
11525;BME280;5819;49.648;8.330;2023-04-04T09:41:56;101411.59;;;8.06;49.89
11525;BME280;5819;49.648;8.330;2023-04-04T09:44:28;101409.81;;;8.07;50.86
11525;BME280;5819;49.648;8.330;2023-04-04T09:49:57;101407.53;;;7.88;50.04
11525;BME280;5819;49.648;8.330;2023-04-04T09:52:26;101406.09;;;8.26;50.76
11525;BME280;5819;49.648;8.330;2023-04-04T09:54:55;101407.59;;;8.42;49.98
11525;BME280;5819;49.648;8.330;2023-04-04T09:57:24;101407.59;;;8.42;49.93
11525;BME280;5819;49.648;8.330;2023-04-04T09:59:57;101403.94;;;8.52;50.87
11525;BME280;5819;49.648;8.330;2023-04-04T10:02:26;101400.88;;;8.27;49.72
11525;BME280;5819;49.648;8.330;2023-04-04T10:04:54;101401.28;;;8.55;49.11
11525;BME280;5819;49.648;8.330;2023-04-04T10:07:32;101401.03;;;8.18;48.39
11525;BME280;5819;49.648;8.330;2023-04-04T10:10:01;101411.38;;;8.72;51.46
11525;BME280;5819;49.648;8.330;2023-04-04T10:12:31;101397.19;;;8.91;47.67
11525;BME280;5819;49.648;8.330;2023-04-04T10:15:01;101396.38;;;8.87;49.28
11525;BME280;5819;49.648;8.330;2023-04-04T10:17:30;101396.22;;;8.97;50.29
11525;BME280;5819;49.648;8.330;2023-04-04T10:20:04;101400.94;;;8.75;51.55
11525;BME280;5819;49.648;8.330;2023-04-04T10:22:34;101400.81;;;8.33;51.70
11525;BME280;5819;49.648;8.330;2023-04-04T10:25:04;101406.59;;;8.49;50.30
11525;BME280;5819;49.648;8.330;2023-04-04T10:27:32;101402.66;;;8.24;51.21
11525;BME280;5819;49.648;8.330;2023-04-04T10:30:03;101385.13;;;8.88;50.41
11525;BME280;5819;49.648;8.330;2023-04-04T10:32:37;101398.03;;;8.45;51.32
11525;BME280;5819;49.648;8.330;2023-04-04T10:35:11;101389.19;;;8.56;50.78
11525;BME280;5819;49.648;8.330;2023-04-04T10:37:42;101392.47;;;8.65;52.30
11525;BME280;5819;49.648;8.330;2023-04-04T10:40:14;101390.97;;;8.54;50.34
11525;BME280;5819;49.648;8.330;2023-04-04T10:42:45;101391.94;;;8.46;51.25
11525;BME280;5819;49.648;8.330;2023-04-04T10:45:15;101391.03;;;8.49;50.97
11525;BME280;5819;49.648;8.330;2023-04-04T10:47:47;101394.44;;;8.53;50.21
11525;BME280;5819;49.648;8.330;2023-04-04T10:50:15;101395.00;;;8.70;48.57
11525;BME280;5819;49.648;8.330;2023-04-04T10:52:44;101393.66;;;8.48;47.98
11525;BME280;5819;49.648;8.330;2023-04-04T10:55:13;101381.25;;;8.66;49.35
11525;BME280;5819;49.648;8.330;2023-04-04T10:57:44;101387.66;;;8.93;50.67
11525;BME280;5819;49.648;8.330;2023-04-04T11:00:18;101373.72;;;8.97;47.84
11525;BME280;5819;49.648;8.330;2023-04-04T11:02:53;101365.53;;;9.17;48.64
11525;BME280;5819;49.648;8.330;2023-04-04T11:05:24;101358.53;;;9.20;48.71
11525;BME280;5819;49.648;8.330;2023-04-04T11:07:56;101358.88;;;9.05;47.41
11525;BME280;5819;49.648;8.330;2023-04-04T11:10:29;101353.25;;;9.26;49.15
11525;BME280;5819;49.648;8.330;2023-04-04T11:13:00;101351.19;;;9.40;46.39
11525;BME280;5819;49.648;8.330;2023-04-04T11:15:52;101342.97;;;9.20;46.12
11525;BME280;5819;49.648;8.330;2023-04-04T11:18:45;101345.78;;;9.10;46.96
11525;BME280;5819;49.648;8.330;2023-04-04T11:21:15;101342.94;;;9.22;47.30
11525;BME280;5819;49.648;8.330;2023-04-04T11:24:13;101341.91;;;9.30;47.69
11525;BME280;5819;49.648;8.330;2023-04-04T11:26:53;101337.44;;;9.37;47.92
11525;BME280;5819;49.648;8.330;2023-04-04T11:32:32;101318.03;;;10.25;45.19
11525;BME280;5819;49.648;8.330;2023-04-04T11:35:04;101319.78;;;9.88;46.37
11525;BME280;5819;49.648;8.330;2023-04-04T11:37:57;101312.75;;;10.28;46.25
11525;BME280;5819;49.648;8.330;2023-04-04T11:40:36;101315.72;;;10.13;46.67
11525;BME280;5819;49.648;8.330;2023-04-04T11:43:11;101323.06;;;9.96;45.76
11525;BME280;5819;49.648;8.330;2023-04-04T11:45:45;101307.84;;;10.16;43.77
11525;BME280;5819;49.648;8.330;2023-04-04T11:48:16;101304.94;;;10.61;43.98
11525;BME280;5819;49.648;8.330;2023-04-04T11:50:46;101314.22;;;10.39;44.72
11525;BME280;5819;49.648;8.330;2023-04-04T11:53:16;101298.03;;;10.91;42.59
11525;BME280;5819;49.648;8.330;2023-04-04T11:55:47;101290.63;;;10.77;42.49
11525;BME280;5819;49.648;8.330;2023-04-04T11:58:17;101298.03;;;10.27;43.48
11525;BME280;5819;49.648;8.330;2023-04-04T12:00:46;101288.28;;;10.99;43.59
11525;BME280;5819;49.648;8.330;2023-04-04T12:03:16;101277.44;;;11.12;41.07
11525;BME280;5819;49.648;8.330;2023-04-04T12:05:45;101277.03;;;11.54;44.39
11525;BME280;5819;49.648;8.330;2023-04-04T12:08:14;101282.69;;;11.11;44.16
11525;BME280;5819;49.648;8.330;2023-04-04T12:10:43;101271.31;;;11.43;41.57
11525;BME280;5819;49.648;8.330;2023-04-04T12:13:12;101267.34;;;11.57;42.50
11525;BME280;5819;49.648;8.330;2023-04-04T12:15:41;101270.97;;;11.25;43.00
11525;BME280;5819;49.648;8.330;2023-04-04T12:18:21;101260.81;;;11.16;42.81
11525;BME280;5819;49.648;8.330;2023-04-04T12:20:49;101248.50;;;11.21;41.93
11525;BME280;5819;49.648;8.330;2023-04-04T12:23:21;101247.00;;;11.68;41.32
11525;BME280;5819;49.648;8.330;2023-04-04T12:25:49;101258.81;;;11.80;44.12
11525;BME280;5819;49.648;8.330;2023-04-04T12:28:20;101247.72;;;11.75;43.58
11525;BME280;5819;49.648;8.330;2023-04-04T12:30:50;101248.69;;;11.71;43.53
11525;BME280;5819;49.648;8.330;2023-04-04T12:33:18;101243.06;;;12.34;40.27
11525;BME280;5819;49.648;8.330;2023-04-04T12:35:51;101239.03;;;12.49;40.17
11525;BME280;5819;49.648;8.330;2023-04-04T12:38:20;101232.16;;;11.72;41.07
11525;BME280;5819;49.648;8.330;2023-04-04T12:40:50;101246.28;;;11.37;42.62
11525;BME280;5819;49.648;8.330;2023-04-04T12:43:17;101237.44;;;11.69;41.48
11525;BME280;5819;49.648;8.330;2023-04-04T12:45:48;101239.97;;;11.72;42.67
11525;BME280;5819;49.648;8.330;2023-04-04T12:48:16;101233.03;;;11.97;42.41
11525;BME280;5819;49.648;8.330;2023-04-04T12:50:52;101228.28;;;11.84;41.33
11525;BME280;5819;49.648;8.330;2023-04-04T12:53:22;101230.41;;;11.72;42.20
11525;BME280;5819;49.648;8.330;2023-04-04T12:55:59;101225.38;;;12.42;42.12
11525;BME280;5819;49.648;8.330;2023-04-04T12:58:27;101216.81;;;12.39;40.89
11525;BME280;5819;49.648;8.330;2023-04-04T13:00:58;101208.31;;;12.32;41.95
11525;BME280;5819;49.648;8.330;2023-04-04T13:03:27;101215.06;;;12.39;40.18
11525;BME280;5819;49.648;8.330;2023-04-04T13:05:58;101209.72;;;12.17;41.27
11525;BME280;5819;49.648;8.330;2023-04-04T13:08:26;101208.09;;;12.15;41.60
11525;BME280;5819;49.648;8.330;2023-04-04T13:10:55;101214.91;;;11.94;41.91
11525;BME280;5819;49.648;8.330;2023-04-04T13:13:34;101201.63;;;12.25;41.53
11525;BME280;5819;49.648;8.330;2023-04-04T13:16:04;101204.16;;;12.03;40.97
11525;BME280;5819;49.648;8.330;2023-04-04T13:18:36;101198.81;;;12.31;39.34
11525;BME280;5819;49.648;8.330;2023-04-04T13:21:06;101193.16;;;11.95;39.24
11525;BME280;5819;49.648;8.330;2023-04-04T13:23:36;101193.72;;;12.03;40.52
11525;BME280;5819;49.648;8.330;2023-04-04T13:26:06;101186.09;;;11.97;40.24
11525;BME280;5819;49.648;8.330;2023-04-04T13:28:35;101178.13;;;12.27;41.46
11525;BME280;5819;49.648;8.330;2023-04-04T13:31:05;101172.31;;;12.42;39.08